CheckWX is a tool to help pilots better visualize weather data.  It is not intended as a substitute for an official pre-flight weather briefing.

01:35:59 UTC

KMDQ METAR
Huntsville Executive Tom Sharp Jr Field Airport
Huntsville, Alabama, USA
Current

41 mins ago

KMDQ 200055Z AUTO 25004KT 10SM CLR 26/22 A3006 RMK A02 T02630217
Observed
Aug-20 @ 00:55 UTC
Wind
  • 250° at 4 KTS
Visibility
10 SM
Flight Rules
VFR
Cloud Levels
  • Clear skies
Temperature
26°C / 79°F
Dewpoint
22°C / 72°F
Humidity
79%
Altimeter
30.06" Hg
Pressure
1017.92 hPa
Previous

1 hour ago

KMDQ 200035Z AUTO 22003KT 10SM CLR 28/21 A3005 RMK A02 T02770213
Observed
Aug-20 @ 00:35 UTC
Wind
  • 220° at 3 KTS
Visibility
10 SM
Flight Rules
VFR
Cloud Levels
  • Clear skies
Temperature
28°C / 82°F
Dewpoint
21°C / 70°F
Heat Index
30°C / 86°F
Humidity
66%
Altimeter
30.05" Hg
Pressure
1017.62 hPa
Previous

2 hours ago

KMDQ 192355Z AUTO 13005KT 10SM BKN110 29/21 A3005 RMK A02 T02900208 10358 20290 403580227
Observed
Aug-19 @ 23:55 UTC
Wind
  • 130° at 5 KTS
Visibility
10 SM
Flight Rules
VFR
Cloud Levels
  • Broken at 11,000' AGL
Temperature
29°C / 84°F
Dewpoint
21°C / 70°F
Heat Index
31°C / 88°F
Humidity
62%
Altimeter
30.05" Hg
Pressure
1017.62 hPa